Time;durP1;ratioP1;P1;durP2;ratioP2;P2;SDS_P1;SDS_P2;PMS_P1;PMS_P2;Temp;Humidity;BMP_temperature;BMP_pressure;BME280_temperature;BME280_humidity;BME280_pressure;Samples;Min_cycle;Max_cycle;Signal;HPM_P1;HPM_P2
2021/12/18 00:02:52;;;;;;;23.20;11.55;;;;;;;3.90;75.70;102198.53;2161753;82;30169;-68
2021/12/18 00:05:54;;;;;;;24.35;10.53;;;;;;;3.92;75.75;102205.19;2187986;80;32259;-60
2021/12/18 00:08:57;;;;;;;22.85;11.50;;;;;;;3.93;75.72;102196.36;2194462;79;33741;-62
2021/12/18 00:12:00;;;;;;;25.90;9.30;;;;;;;3.95;75.70;102200.80;2229164;79;30020;-64
2021/12/18 00:15:03;;;;;;;28.75;9.83;;;;;;;3.97;75.58;102209.20;2229207;79;27617;-61
2021/12/18 00:18:05;;;;;;;24.12;10.45;;;;;;;3.97;75.54;102205.22;2228144;79;28654;-63
2021/12/18 00:21:09;;;;;;;26.65;10.68;;;;;;;3.96;75.56;102197.72;2194577;79;32283;-63
2021/12/18 00:24:11;;;;;;;28.20;11.18;;;;;;;3.97;75.54;102207.88;2187595;81;33363;-64
2021/12/18 00:27:13;;;;;;;29.32;12.03;;;;;;;3.95;75.53;102203.90;2187975;81;30523;-61
2021/12/18 00:30:15;;;;;;;29.77;10.85;;;;;;;3.97;75.57;102210.52;2209973;79;28355;-68
2021/12/18 00:33:17;;;;;;;22.40;10.32;;;;;;;3.99;75.49;102207.45;2229273;79;29108;-61
2021/12/18 00:36:19;;;;;;;21.30;9.78;;;;;;;3.98;75.46;102206.55;2229022;79;30965;-61
2021/12/18 00:39:20;;;;;;;26.12;9.78;;;;;;;3.96;75.39;102218.94;2214431;79;33356;-60
2021/12/18 00:42:43;;;;;;;21.52;9.58;;;;;;;3.97;75.50;102222.04;2188390;81;30079;-60
2021/12/18 00:45:41;;;;;;;25.60;11.15;;;;;;;4.00;75.46;102233.10;2187426;81;27645;-61
2021/12/18 00:48:43;;;;;;;21.40;9.43;;;;;;;3.99;75.39;102237.95;2222721;79;30066;-68
2021/12/18 00:51:46;;;;;;;31.85;11.70;;;;;;;3.97;75.34;102244.58;2184029;81;31498;-61
2021/12/18 00:54:48;;;;;;;19.67;9.73;;;;;;;3.97;75.36;102245.91;2184589;81;34182;-61
2021/12/18 00:57:51;;;;;;;25.35;9.98;;;;;;;3.97;75.39;102241.02;2184830;81;31004;-62
2021/12/18 01:00:54;;;;;;;24.47;9.60;;;;;;;3.95;75.32;102239.24;2185420;81;27687;-64
2021/12/18 01:03:57;;;;;;;26.73;10.80;;;;;;;3.95;75.30;102249.84;2185614;81;29032;-61
2021/12/18 01:06:59;;;;;;;21.60;9.63;;;;;;;3.94;75.25;102249.84;2185156;81;31046;-64
2021/12/18 01:13:05;;;;;;;23.55;10.28;;;;;;;3.95;75.34;102252.95;2185136;81;30059;-64
2021/12/18 01:16:15;;;;;;;24.82;10.85;;;;;;;3.96;75.29;102252.08;2185641;81;27682;-61
2021/12/18 01:22:47;;;;;;;26.10;12.43;;;;;;;3.97;75.26;102247.66;2185283;81;32233;-61
2021/12/18 01:25:46;;;;;;;;;;;;;;;3.95;75.23;102242.34;2187355;81;33345;-63
2021/12/18 01:28:47;;;;;;;24.18;10.40;;;;;;;3.95;75.24;102239.69;2185083;81;30233;-62
2021/12/18 01:31:51;;;;;;;25.52;10.32;;;;;;;3.93;75.21;102242.31;2185286;81;27627;-60
2021/12/18 01:34:53;;;;;;;25.80;11.12;;;;;;;3.92;75.25;102247.16;2198822;80;29518;-60
2021/12/18 01:37:55;;;;;;;24.20;10.38;;;;;;;3.93;75.21;102236.14;2204188;80;32494;-62
2021/12/18 01:40:58;;;;;;;18.00;9.25;;;;;;;3.91;75.19;102238.75;2184847;81;34258;-60
2021/12/18 01:51:16;;;;;;;25.02;11.10;;;;;;;3.93;75.32;102224.20;2187257;78;28358;-60
2021/12/18 01:53:41;;;;;;;24.30;10.82;;;;;;;3.94;75.27;102220.22;2229210;79;32280;-76
2021/12/18 01:56:43;;;;;;;30.02;13.88;;;;;;;3.95;75.24;102215.83;2229650;79;33342;-74
2021/12/18 01:59:47;;;;;;;24.00;11.93;;;;;;;3.95;75.27;102221.13;2189561;79;30557;-63
2021/12/18 02:02:50;;;;;;;28.25;13.05;;;;;;;3.96;75.29;102214.95;2188560;81;28574;-63
2021/12/18 02:05:53;;;;;;;27.90;12.60;;;;;;;3.96;75.39;102218.94;2188210;81;30114;-61
2021/12/18 02:08:56;;;;;;;27.42;12.78;;;;;;;3.98;75.37;102225.11;2215035;79;33071;-64
2021/12/18 02:11:59;;;;;;;29.05;13.58;;;;;;;3.99;75.38;102228.22;2229703;79;33021;-63
2021/12/18 02:21:42;;;;;;;27.62;12.78;;;;;;;3.97;75.34;102216.73;2229240;79;29684;-65
2021/12/18 02:24:45;;;;;;;29.18;11.75;;;;;;;3.99;75.39;102216.28;2195000;79;27639;-67
2021/12/18 02:27:48;;;;;;;25.97;11.95;;;;;;;4.01;75.43;102215.86;2187817;79;33494;-65
2021/12/18 02:30:53;;;;;;;23.25;12.20;;;;;;;4.00;75.26;102217.19;2201229;79;30862;-60
2021/12/18 02:33:55;;;;;;;20.65;11.03;;;;;;;3.99;75.28;102217.61;2229359;79;27718;-61
2021/12/18 02:37:04;;;;;;;23.45;11.12;;;;;;;3.97;75.28;102227.34;2229243;79;28676;-61
2021/12/18 02:43:04;;;;;;;30.02;11.80;;;;;;;3.96;75.44;102216.28;2229357;79;34139;-62
2021/12/18 02:46:09;;;;;;;25.23;11.12;;;;;;;3.99;75.30;102226.02;2209602;79;29869;-65
2021/12/18 02:49:15;;;;;;;25.35;10.50;;;;;;;3.93;75.25;102222.87;2185797;81;27770;-65
2021/12/18 02:52:19;;;;;;;22.13;11.00;;;;;;;3.91;75.22;102218.00;2186418;80;29037;-61
2021/12/18 02:55:21;;;;;;;18.40;10.32;;;;;;;3.89;75.22;102213.98;2183759;81;31054;-62
2021/12/18 02:58:23;;;;;;;24.05;10.80;;;;;;;3.89;75.29;102213.98;2183691;81;32914;-64
2021/12/18 03:01:28;;;;;;;20.90;10.20;;;;;;;3.88;75.25;102215.30;2183562;81;30581;-61
2021/12/18 03:04:34;;;;;;;22.93;8.50;;;;;;;3.86;75.27;102214.40;2222474;80;27744;-63
2021/12/18 03:07:33;;;;;;;21.35;11.45;;;;;;;3.86;75.27;102214.40;2224178;80;29845;-67
2021/12/18 03:27:02;;;;;;;23.98;12.10;;;;;;;3.82;75.18;102204.22;2121471;82;31710;-67
2021/12/18 03:30:07;;;;;;;27.50;13.05;;;;;;;3.79;75.28;102197.13;2156180;82;33086;-70
2021/12/18 03:33:09;;;;;;;17.65;8.63;;;;;;;3.78;75.33;102183.84;2156045;82;29671;-70
2021/12/18 03:36:11;;;;;;;27.13;13.38;;;;;;;3.79;75.39;102185.20;2156257;82;27658;-67
2021/12/18 03:39:15;;;;;;;24.25;12.80;;;;;;;3.80;75.36;102178.13;2156133;82;28148;-61
2021/12/18 03:42:17;;;;;;;25.77;13.10;;;;;;;3.80;75.38;102183.00;2156012;82;32246;-61
2021/12/18 03:45:20;;;;;;;26.85;12.23;;;;;;;3.79;75.38;102181.23;2156027;82;34323;-62
2021/12/18 03:48:22;;;;;;;18.98;12.03;;;;;;;3.79;75.32;102185.63;2156187;81;30929;-70
2021/12/18 03:51:23;;;;;;;23.57;12.35;;;;;;;3.79;75.42;102189.18;2156044;82;27733;-70
2021/12/18 03:54:28;;;;;;;21.95;11.48;;;;;;;3.78;75.32;102191.80;2156358;82;29873;-65
2021/12/18 03:57:32;;;;;;;30.62;12.98;;;;;;;3.79;75.35;102202.85;2155922;82;33135;-61
2021/12/18 04:00:35;;;;;;;18.15;11.90;;;;;;;3.78;75.29;102203.72;2120044;84;35670;-62
2021/12/18 04:03:37;;;;;;;19.82;11.40;;;;;;;3.76;75.32;102205.05;2194600;81;29690;-65
2021/12/18 04:06:39;;;;;;;22.75;11.53;;;;;;;3.76;75.26;102212.09;2193161;80;27622;-66
2021/12/18 04:09:41;;;;;;;27.45;11.05;;;;;;;3.76;75.36;102209.45;2183516;80;29864;-65
2021/12/18 04:12:44;;;;;;;24.20;11.65;;;;;;;3.75;75.36;102202.36;2181625;81;32363;-65
2021/12/18 04:15:45;;;;;;;25.05;11.57;;;;;;;3.73;75.33;102191.77;2181437;81;33318;-62
2021/12/18 04:18:47;;;;;;;25.00;11.35;;;;;;;3.72;75.39;102188.66;2200910;80;30345;-71
2021/12/18 04:21:49;;;;;;;23.25;11.30;;;;;;;3.72;75.40;102183.36;2222970;79;27659;-73
2021/12/18 04:24:51;;;;;;;23.00;10.60;;;;;;;3.72;75.39;102178.05;2222995;79;29021;-64
2021/12/18 04:27:55;;;;;;;23.52;10.63;;;;;;;3.71;75.36;102182.03;2221452;79;27681;-76
2021/12/18 04:30:57;;;;;;;22.82;11.00;;;;;;;3.70;75.35;102173.17;2221972;80;34314;-74
2021/12/18 04:33:59;;;;;;;25.95;13.08;;;;;;;3.71;75.42;102167.45;2222126;80;29577;-77
2021/12/18 04:37:01;;;;;;;21.95;11.05;;;;;;;3.68;75.36;102170.06;2222201;80;27587;-68
2021/12/18 04:40:07;;;;;;;22.48;11.12;;;;;;;3.67;75.34;102162.98;2191350;80;29922;-75
2021/12/18 04:43:10;;;;;;;25.65;10.58;;;;;;;3.65;75.40;102166.51;2181469;81;31984;-73
2021/12/18 04:46:12;;;;;;;24.15;10.20;;;;;;;3.64;75.40;102171.81;2181479;81;32980;-67
2021/12/18 04:49:16;;;;;;;24.50;12.13;;;;;;;3.61;75.37;102177.95;2189609;79;30464;-61
2021/12/18 04:52:18;;;;;;;22.57;11.67;;;;;;;3.62;75.38;102178.85;2187873;79;27687;-73
2021/12/18 04:55:20;;;;;;;26.42;13.68;;;;;;;3.62;75.41;102170.91;2187383;80;28735;-68
2021/12/18 04:58:22;;;;;;;24.23;12.45;;;;;;;3.62;75.43;102173.55;2187663;81;32146;-77
2021/12/18 05:01:24;;;;;;;19.60;10.50;;;;;;;3.60;75.46;102171.32;2187972;79;33360;-65
2021/12/18 05:04:26;;;;;;;24.55;11.35;;;;;;;3.61;75.40;102165.14;2187437;80;30820;-71
2021/12/18 05:07:28;;;;;;;20.30;10.58;;;;;;;3.58;75.46;102160.69;2187642;80;27664;-67
2021/12/18 05:10:31;;;;;;;18.23;9.05;;;;;;;3.57;75.46;102157.58;2189321;79;29475;-71
2021/12/18 05:13:33;;;;;;;19.87;11.73;;;;;;;3.56;75.45;102153.16;2187861;80;31840;-70
2021/12/18 05:16:35;;;;;;;26.05;11.38;;;;;;;3.55;75.46;102158.03;2187400;81;34022;-75
2021/12/18 05:19:37;;;;;;;19.95;10.82;;;;;;;3.56;75.60;102156.26;2187514;80;30055;-71
2021/12/18 05:22:39;;;;;;;20.48;10.28;;;;;;;3.58;75.54;102155.39;2187948;79;27800;-78
2021/12/18 05:25:41;;;;;;;30.08;13.13;;;;;;;3.55;75.48;102160.69;2187498;81;30093;-69
2021/12/18 05:28:43;;;;;;;27.90;12.55;;;;;;;3.55;75.43;102155.80;2187634;81;32276;-79
2021/12/18 05:31:46;;;;;;;33.67;17.70;;;;;;;3.53;75.52;102147.85;2211219;79;33963;-77
2021/12/18 05:34:47;;;;;;;28.73;15.88;;;;;;;3.55;75.62;102150.50;2228876;79;29704;-68
2021/12/18 05:37:52;;;;;;;23.90;11.45;;;;;;;3.53;75.56;102141.23;2228899;79;27634;-70
2021/12/18 05:40:53;;;;;;;27.48;12.25;;;;;;;3.53;75.53;102135.92;2228774;79;29489;-71
2021/12/18 05:43:55;;;;;;;26.82;12.82;;;;;;;3.48;75.51;102132.34;2228435;79;32209;-71
2021/12/18 05:46:57;;;;;;;23.73;11.55;;;;;;;3.48;75.68;102132.34;2228247;79;33409;-76
2021/12/18 05:50:00;;;;;;;22.00;9.83;;;;;;;3.48;75.65;102131.02;2228469;79;30791;-69
2021/12/18 05:53:03;;;;;;;26.70;13.20;;;;;;;3.46;75.65;102133.66;2228985;79;27678;-72
2021/12/18 05:56:05;;;;;;;26.20;12.95;;;;;;;3.45;75.68;102137.59;2228984;79;28568;-65
2021/12/18 05:59:07;;;;;;;26.25;10.08;;;;;;;3.44;75.63;102133.17;2214415;79;30806;-70
2021/12/18 06:02:09;;;;;;;24.20;10.20;;;;;;;3.43;75.72;102134.95;2187822;81;33828;-76
2021/12/18 06:05:11;;;;;;;20.45;10.58;;;;;;;3.44;75.81;102131.42;2187460;81;30140;-72
2021/12/18 06:08:14;;;;;;;26.37;11.93;;;;;;;3.47;75.81;102130.14;2189019;79;27665;-64
2021/12/18 06:11:19;;;;;;;29.27;15.80;;;;;;;3.47;75.76;102128.81;2228434;79;29534;-65
2021/12/18 06:14:21;;;;;;;24.63;11.38;;;;;;;3.48;75.73;102121.73;2228394;79;32276;-75
2021/12/18 06:17:23;;;;;;;19.98;12.07;;;;;;;3.47;75.74;102127.91;2228397;79;34421;-71
2021/12/18 06:20:26;;;;;;;18.90;10.45;;;;;;;3.48;75.75;102125.26;2202862;79;31031;-67
2021/12/18 06:23:29;;;;;;;15.88;10.98;;;;;;;3.50;75.70;102125.30;2215040;79;27721;-67
2021/12/18 06:26:30;;;;;;;19.42;8.63;;;;;;;3.50;75.71;102125.30;2228534;79;29908;-67
2021/12/18 06:29:33;;;;;;;16.12;8.38;;;;;;;3.50;75.66;102135.89;2228461;79;32383;-73
2021/12/18 06:32:35;;;;;;;18.23;8.18;;;;;;;3.52;75.72;102126.62;2214792;79;34290;-74
2021/12/18 06:35:38;;;;;;;18.55;8.73;;;;;;;3.53;75.72;102129.30;2187549;81;30167;-76
2021/12/18 06:38:39;;;;;;;17.07;8.65;;;;;;;3.55;75.68;102133.28;2187574;80;27668;-77
2021/12/18 06:41:41;;;;;;;25.45;9.95;;;;;;;3.54;75.64;102137.70;2187676;81;29137;-70
2021/12/18 06:44:43;;;;;;;21.70;8.43;;;;;;;3.56;75.70;102141.68;2187758;81;32260;-75
2021/12/18 06:47:45;;;;;;;20.37;9.23;;;;;;;3.57;75.68;102146.98;2199680;79;34374;-74
2021/12/18 06:50:47;;;;;;;17.95;10.23;;;;;;;3.58;75.70;102136.83;2229398;78;30029;-69
2021/12/18 06:53:48;;;;;;;18.80;8.68;;;;;;;3.61;75.65;102130.24;2229532;79;27648;-73
2021/12/18 06:56:50;;;;;;;16.90;8.38;;;;;;;3.60;75.55;102131.12;2198577;81;29942;-71
2021/12/18 06:59:52;;;;;;;16.50;8.03;;;;;;;3.61;75.46;102130.24;2216345;79;32397;-74
2021/12/18 07:02:56;;;;;;;16.52;7.60;;;;;;;3.62;75.38;102141.75;2187997;81;32756;-75
2021/12/18 07:05:58;;;;;;;16.35;7.40;;;;;;;3.60;75.25;102147.02;2187856;81;29133;-76
2021/12/18 07:09:00;;;;;;;12.93;6.37;;;;;;;3.59;75.20;102141.27;2187697;81;27739;-75
2021/12/18 07:12:03;;;;;;;13.68;6.05;;;;;;;3.58;75.09;102142.13;2224546;79;29981;-75
2021/12/18 07:15:07;;;;;;;11.90;7.47;;;;;;;3.56;75.17;102139.91;2228660;79;31249;-69
2021/12/18 07:18:09;;;;;;;16.75;7.10;;;;;;;3.57;75.10;102142.13;2228675;79;33059;-74
2021/12/18 07:21:11;;;;;;;12.65;6.85;;;;;;;3.58;75.09;102139.94;2203707;79;30627;-73
2021/12/18 07:24:15;;;;;;;13.50;6.67;;;;;;;3.60;75.12;102136.88;2187813;79;27643;-75
2021/12/18 07:27:17;;;;;;;18.55;7.25;;;;;;;3.61;75.09;102132.02;2187522;81;28587;-80
2021/12/18 07:30:19;;;;;;;14.95;7.33;;;;;;;3.59;74.93;102129.34;2187267;80;32293;-72
2021/12/18 07:33:21;;;;;;;13.50;6.67;;;;;;;3.60;75.03;102131.12;2187301;81;34169;-71
2021/12/18 07:36:23;;;;;;;18.95;7.08;;;;;;;3.62;75.07;102138.65;2210933;79;30075;-76
2021/12/18 07:39:25;;;;;;;13.28;7.62;;;;;;;3.68;75.13;102134.28;2228419;79;28309;-79
2021/12/18 07:42:27;;;;;;;19.30;8.73;;;;;;;3.69;74.94;102134.73;2228322;79;29204;-66
2021/12/18 07:45:33;;;;;;;17.50;8.18;;;;;;;3.71;74.87;102132.99;2203565;79;31029;-74
2021/12/18 07:48:33;;;;;;;17.70;8.95;;;;;;;3.72;74.85;102134.77;2186715;81;34347;-82
2021/12/18 07:51:36;;;;;;;18.02;8.73;;;;;;;3.74;74.93;102132.57;2195800;81;30821;-71
2021/12/18 07:54:38;;;;;;;15.48;8.88;;;;;;;3.78;74.98;102125.52;2208573;79;27654;-74
2021/12/18 07:57:40;;;;;;;19.70;9.78;;;;;;;3.81;74.93;102120.25;2239220;79;29753;-79
2021/12/18 08:00:41;;;;;;;25.60;13.25;;;;;;;3.83;74.83;102118.51;2239006;79;31830;-68
2021/12/18 08:03:44;;;;;;;24.47;13.83;;;;;;;3.87;74.85;102111.45;2238871;79;34103;-74
2021/12/18 08:06:45;;;;;;;19.05;11.35;;;;;;;3.88;74.67;102107.92;2238606;79;30983;-78
2021/12/18 08:09:47;;;;;;;21.85;11.83;;;;;;;3.89;74.72;102112.36;2239262;79;27618;-78
2021/12/18 08:12:49;;;;;;;20.15;12.63;;;;;;;3.92;74.73;102114.58;2239159;79;29878;-77
2021/12/18 08:15:51;;;;;;;21.77;12.47;;;;;;;3.91;74.53;102108.83;2239133;79;32245;-75
2021/12/18 08:18:53;;;;;;;20.65;12.47;;;;;;;3.94;74.62;102107.53;2239215;79;34284;-71
2021/12/18 08:21:55;;;;;;;22.85;12.73;;;;;;;3.98;74.65;102099.60;2239461;79;30769;-72
2021/12/18 08:24:57;;;;;;;21.90;12.53;;;;;;;4.01;74.61;102094.33;2225037;79;28288;-70
2021/12/18 08:28:00;;;;;;;20.88;12.37;;;;;;;4.02;74.58;102090.34;2198080;80;29059;-73
2021/12/18 08:31:02;;;;;;;17.92;11.57;;;;;;;4.06;74.53;102093.90;2198042;81;32296;-74
2021/12/18 08:34:04;;;;;;;25.52;13.38;;;;;;;4.07;74.35;102099.23;2197992;81;33361;-68
2021/12/18 08:37:08;;;;;;;26.30;12.80;;;;;;;4.08;74.31;102101.01;2198059;81;29670;-71
2021/12/18 08:40:13;;;;;;;23.40;11.70;;;;;;;4.08;74.36;102098.36;2198117;81;27599;-68
2021/12/18 08:43:15;;;;;;;25.75;12.13;;;;;;;4.10;74.37;102091.72;2197770;81;28774;-62
2021/12/18 08:46:19;;;;;;;22.22;12.82;;;;;;;4.14;74.43;102088.67;2197634;81;32328;-62
2021/12/18 08:49:21;;;;;;;23.50;12.07;;;;;;;4.19;74.54;102089.14;2197893;81;34069;-69
2021/12/18 08:52:23;;;;;;;24.82;12.82;;;;;;;4.24;74.45;102091.81;2212786;79;30820;-61
2021/12/18 08:55:25;;;;;;;27.52;12.35;;;;;;;4.26;74.25;102089.61;2239085;79;27744;-62
2021/12/18 08:58:27;;;;;;;17.80;12.18;;;;;;;4.29;74.24;102083.88;2239110;79;29683;-65
2021/12/18 09:01:30;;;;;;;20.17;12.65;;;;;;;4.32;74.26;102078.13;2239018;79;31775;-63
2021/12/18 09:04:32;;;;;;;20.90;14.63;;;;;;;4.36;74.26;102083.05;2239300;79;33035;-59
2021/12/18 09:07:34;;;;;;;25.45;13.60;;;;;;;4.41;74.18;102070.23;2239540;79;30424;-64
2021/12/18 09:10:36;;;;;;;25.95;14.65;;;;;;;4.45;74.22;102063.63;2239184;79;27637;-69
2021/12/18 09:13:40;;;;;;;28.20;15.38;;;;;;;4.53;74.34;102057.89;2239023;79;28714;-60
2021/12/18 09:16:42;;;;;;;29.42;16.97;;;;;;;4.61;74.29;102056.17;2238595;79;31497;-63
2021/12/18 09:19:44;;;;;;;28.67;17.07;;;;;;;4.69;74.24;102055.73;2239177;79;34155;-71
2021/12/18 09:22:46;;;;;;;27.07;15.38;;;;;;;4.76;74.20;102050.45;2228941;79;30906;-64
2021/12/18 09:25:49;;;;;;;26.50;16.45;;;;;;;4.81;73.99;102040.30;2238593;79;27708;-62
2021/12/18 09:28:51;;;;;;;31.12;16.25;;;;;;;4.88;73.98;102031.89;2237732;79;30007;-62
2021/12/18 09:31:54;;;;;;;27.73;14.68;;;;;;;4.91;73.77;102030.58;2238793;79;31096;-61
2021/12/18 09:34:57;;;;;;;25.60;15.58;;;;;;;4.94;73.79;102026.61;2238589;79;33734;-62
2021/12/18 09:38:00;;;;;;;22.02;13.98;;;;;;;4.99;73.73;102025.28;2239123;79;30052;-67
2021/12/18 09:41:06;;;;;;;30.02;16.00;;;;;;;5.11;73.93;102021.77;2238450;79;28311;-67
2021/12/18 09:44:10;;;;;;;28.00;16.80;;;;;;;5.32;74.00;102017.77;2237355;79;28750;-66
2021/12/18 09:47:13;;;;;;;28.32;15.23;;;;;;;5.53;73.81;102012.46;2239192;79;31194;-66
2021/12/18 09:50:19;;;;;;;26.35;15.32;;;;;;;5.68;73.47;102012.87;2235452;79;33319;-64
2021/12/18 09:53:21;;;;;;;22.52;13.05;;;;;;;5.75;73.26;102006.20;2209388;80;29858;-66
2021/12/18 09:56:29;;;;;;;24.92;12.45;;;;;;;5.81;73.20;101990.67;2178755;80;27747;-66
2021/12/18 09:59:32;;;;;;;23.00;12.68;;;;;;;5.91;73.07;101992.44;2129551;82;29712;-64
2021/12/18 10:02:36;;;;;;;26.80;15.75;;;;;;;5.96;72.95;101983.11;2154220;82;31152;-66
2021/12/18 10:05:38;;;;;;;22.70;12.33;;;;;;;6.02;72.74;101988.45;2153916;82;33775;-63
2021/12/18 10:08:41;;;;;;;19.42;10.03;;;;;;;6.09;72.89;101987.98;2153402;82;30484;-65
2021/12/18 10:11:52;;;;;;;20.17;10.58;;;;;;;6.14;72.62;101981.31;2154639;82;27740;-65
2021/12/18 10:15:14;;;;;;;19.23;12.03;;;;;;;6.20;72.47;101981.30;2154413;82;28750;-67
2021/12/18 10:18:16;;;;;;;15.43;10.40;;;;;;;6.24;72.25;101977.70;2154530;82;31046;-66
2021/12/18 10:21:23;;;;;;;21.23;10.63;;;;;;;6.27;72.07;101974.17;2153848;82;33134;-64
2021/12/18 10:24:26;;;;;;;21.85;11.45;;;;;;;6.34;72.15;101983.45;2144826;82;29762;-66
2021/12/18 10:27:30;;;;;;;20.57;11.35;;;;;;;6.40;71.99;101979.86;2138222;82;27902;-71
2021/12/18 10:30:32;;;;;;;19.57;10.70;;;;;;;6.46;71.74;101961.17;2154656;82;28666;-65
2021/12/18 10:33:35;;;;;;;23.25;12.82;;;;;;;6.49;71.91;101963.83;2154805;82;30994;-65
2021/12/18 10:36:37;;;;;;;16.62;10.70;;;;;;;6.53;72.03;101964.25;2154567;82;33196;-67
2021/12/18 10:39:44;;;;;;;16.85;10.38;;;;;;;6.57;71.77;101965.11;2154450;82;30400;-67
2021/12/18 10:42:46;;;;;;;22.17;10.65;;;;;;;6.60;71.81;101963.77;2154046;82;27797;-68
2021/12/18 10:45:49;;;;;;;18.20;9.48;;;;;;;6.60;71.54;101960.23;2153886;82;28715;-64
2021/12/18 10:49:02;;;;;;;21.68;10.35;;;;;;;6.55;71.24;101956.24;2154786;82;31224;-63
2021/12/18 10:52:04;;;;;;;18.92;8.98;;;;;;;6.52;71.42;101951.83;2148823;82;34277;-65
2021/12/18 10:55:06;;;;;;;18.90;9.70;;;;;;;6.53;71.40;101960.72;2154327;81;29728;-64
2021/12/18 10:58:16;;;;;;;18.75;9.55;;;;;;;6.52;71.41;101957.16;2195123;81;27605;-62
2021/12/18 11:01:17;;;;;;;18.75;10.18;;;;;;;6.53;71.08;101947.41;2194366;81;28736;-64
2021/12/18 11:04:30;;;;;;;18.40;11.15;;;;;;;6.52;71.06;101947.84;2195047;81;31036;-64
2021/12/18 11:07:41;;;;;;;14.18;9.50;;;;;;;6.46;70.83;101953.19;2194905;81;32947;-65
2021/12/18 11:10:55;;;;;;;18.82;10.58;;;;;;;6.39;70.84;101944.81;2193428;81;29646;-67
2021/12/18 11:13:48;;;;;;;17.57;8.55;;;;;;;6.36;70.91;101942.16;2193087;81;27676;-67
2021/12/18 11:16:56;;;;;;;28.07;11.63;;;;;;;6.35;70.98;101940.39;2174129;81;28634;-63
2021/12/18 11:20:00;;;;;;;21.17;11.65;;;;;;;6.34;71.13;101931.97;2157115;82;32152;-65
2021/12/18 11:23:03;;;;;;;28.70;14.47;;;;;;;6.34;70.96;101930.64;2156666;82;33821;-65
2021/12/18 11:26:06;;;;;;;17.57;9.38;;;;;;;6.33;71.21;101927.11;2171208;81;30810;-65
2021/12/18 11:29:25;;;;;;;25.32;13.10;;;;;;;6.34;70.98;101925.31;2188135;81;27660;-66
2021/12/18 11:32:32;;;;;;;15.10;9.38;;;;;;;6.32;71.04;101920.02;2192579;81;28664;-66
2021/12/18 11:35:35;;;;;;;20.23;10.10;;;;;;;6.29;70.92;101916.03;2194805;81;31877;-66
2021/12/18 11:38:41;;;;;;;19.98;11.50;;;;;;;6.32;71.15;101899.15;2195265;81;32986;-68
2021/12/18 11:41:47;;;;;;;24.65;14.07;;;;;;;6.31;71.06;101899.61;2183559;81;29612;-65
2021/12/18 11:45:03;;;;;;;19.77;11.18;;;;;;;6.34;71.29;101893.38;2153750;82;27704;-64
2021/12/18 11:48:01;;;;;;;22.25;10.70;;;;;;;6.37;71.27;101884.91;2169036;81;28675;-65
2021/12/18 11:51:13;;;;;;;13.50;9.25;;;;;;;6.38;70.97;101877.37;2168325;81;31024;-66
2021/12/18 11:54:51;;;;;;;18.10;11.65;;;;;;;6.36;71.07;101875.62;2147887;81;32989;-64
2021/12/18 11:57:59;;;;;;;20.57;10.90;;;;;;;6.38;71.08;101872.05;2181125;81;29841;-69
2021/12/18 12:01:05;;;;;;;21.57;9.60;;;;;;;6.37;71.02;101866.28;2180774;81;27584;-63
2021/12/18 12:04:07;;;;;;;21.85;10.93;;;;;;;6.36;70.96;101860.55;2177760;81;27730;-63
2021/12/18 12:07:19;;;;;;;18.42;10.18;;;;;;;6.36;71.09;101858.32;2181125;81;30639;-63
2021/12/18 12:14:11;;;;;;;19.52;9.50;;;;;;;6.38;71.01;101859.20;2143817;83;29687;-64
2021/12/18 12:17:24;;;;;;;39.23;22.25;;;;;;;6.38;70.89;101852.54;2113208;83;28292;-64
2021/12/18 12:20:43;;;;;;;29.18;16.70;;;;;;;6.32;71.08;101860.13;2115999;83;28695;-64
2021/12/18 12:24:02;;;;;;;30.95;19.30;;;;;;;6.33;71.00;101852.58;2099622;83;32054;-65
2021/12/18 12:27:39;;;;;;;20.60;12.33;;;;;;;6.30;71.02;101851.27;2102094;83;33766;-65
2021/12/18 12:31:01;;;;;;;18.07;13.45;;;;;;;6.28;71.17;101846.40;2096360;83;30264;-66
2021/12/18 12:34:26;;;;;;;20.35;15.78;;;;;;;6.30;71.21;101836.63;2087968;85;27719;-66
2021/12/18 12:37:34;;;;;;;22.58;11.90;;;;;;;6.31;71.30;101833.50;2087735;85;28766;-66
2021/12/18 12:40:37;;;;;;;24.45;15.23;;;;;;;6.33;71.27;101829.95;2087974;85;31052;-67
2021/12/18 12:43:41;;;;;;;22.60;14.58;;;;;;;6.38;71.42;101825.46;2088486;85;33264;-66
2021/12/18 12:46:45;;;;;;;21.33;14.78;;;;;;;6.45;71.42;101817.44;2088162;85;29852;-66
2021/12/18 12:49:54;;;;;;;30.52;18.98;;;;;;;6.46;71.16;101813.42;2069127;85;27818;-66
2021/12/18 12:53:08;;;;;;;24.50;16.77;;;;;;;6.46;71.27;101818.75;2070669;84;28730;-65
2021/12/18 12:56:16;;;;;;;16.40;10.20;;;;;;;6.48;71.27;101812.97;2115927;84;31260;-67
2021/12/18 12:59:28;;;;;;;13.62;9.88;;;;;;;6.48;71.11;101808.11;2115452;82;33687;-64
2021/12/18 20:55:38;;;;;;;9.47;6.43;;;;;;;5.21;81.66;101301.36;2254019;78;27875;-66
2021/12/18 20:58:43;;;;;;;7.85;6.53;;;;;;;5.19;81.61;101298.70;2216842;79;27618;-72
2021/12/18 21:01:45;;;;;;;8.88;6.47;;;;;;;5.22;81.53;101289.81;2205117;80;28679;-67
2021/12/18 21:04:47;;;;;;;10.25;7.00;;;;;;;5.25;81.52;101301.73;2202608;79;31867;-67
2021/12/18 21:08:00;;;;;;;8.93;6.75;;;;;;;5.29;81.49;101298.16;2213018;79;32984;-67
2021/12/18 21:11:04;;;;;;;10.23;6.50;;;;;;;5.35;81.41;101305.17;2213995;79;29126;-66
2021/12/18 21:14:06;;;;;;;14.10;10.68;;;;;;;5.41;81.37;101313.95;2212576;79;27638;-68
2021/12/18 21:17:08;;;;;;;10.32;7.08;;;;;;;5.45;81.22;101318.33;2210822;79;28701;-67
2021/12/18 21:20:12;;;;;;;10.95;5.85;;;;;;;5.50;81.03;101312.09;2203627;79;27727;-67
2021/12/18 21:23:14;;;;;;;7.67;5.37;;;;;;;5.53;80.96;101310.27;2194274;79;32952;-67
2021/12/18 21:26:18;;;;;;;6.15;5.05;;;;;;;5.58;80.83;101312.42;2212300;80;28930;-66
2021/12/18 21:29:21;;;;;;;5.70;4.62;;;;;;;5.63;80.79;101299.06;2208695;79;27752;-66
2021/12/18 21:32:22;;;;;;;5.22;4.53;;;;;;;5.66;80.69;101288.40;2217591;79;28935;-68
2021/12/18 21:38:49;;;;;;;6.60;4.67;;;;;;;5.72;80.53;101272.81;2215838;79;33724;-67
2021/12/18 21:41:55;;;;;;;5.40;4.28;;;;;;;5.73;80.49;101271.45;2192748;79;29540;-69
2021/12/18 21:44:58;;;;;;;4.75;4.25;;;;;;;5.77;80.51;101261.20;2215483;79;28262;-68
2021/12/18 21:48:01;;;;;;;5.65;4.12;;;;;;;5.80;80.39;101257.62;2206039;79;28655;-67
2021/12/18 21:51:03;;;;;;;4.83;4.33;;;;;;;5.82;80.43;101239.86;2222769;79;31036;-68
2021/12/18 21:54:10;;;;;;;5.28;4.15;;;;;;;5.85;80.47;101234.97;2207288;79;32976;-68
2021/12/18 21:57:11;;;;;;;5.22;4.33;;;;;;;5.87;80.40;101235.37;2211759;79;28747;-68
2021/12/18 22:00:15;;;;;;;4.10;3.35;;;;;;;5.89;80.38;101232.23;2203185;79;27732;-66
2021/12/18 22:03:17;;;;;;;5.40;3.62;;;;;;;5.90;80.31;101213.16;2222604;79;30087;-64
2021/12/18 22:06:24;;;;;;;4.28;3.10;;;;;;;5.92;80.27;101196.72;2218972;79;31018;-70
2021/12/18 22:09:25;;;;;;;3.92;3.25;;;;;;;5.93;80.23;101192.73;2115528;82;32965;-64
2021/12/18 22:12:27;;;;;;;4.42;3.10;;;;;;;5.97;80.22;101180.69;2078298;83;28720;-66
2021/12/18 22:15:32;;;;;;;2.83;2.55;;;;;;;5.98;80.19;101181.11;2126379;83;27726;-66
2021/12/18 22:18:34;;;;;;;3.27;2.83;;;;;;;5.98;80.14;101182.45;2121681;83;28564;-67
2021/12/18 22:21:36;;;;;;;3.12;2.45;;;;;;;5.98;80.14;101189.99;2097958;83;31026;-67
2021/12/18 22:24:44;;;;;;;2.98;2.42;;;;;;;6.00;80.19;101184.66;2111097;83;32985;-69
2021/12/18 22:27:46;;;;;;;2.52;2.00;;;;;;;6.02;80.11;101180.20;2062091;86;28908;-67
2021/12/18 22:30:53;;;;;;;2.42;2.00;;;;;;;6.02;80.08;101166.47;2057380;86;27730;-67
2021/12/18 22:33:55;;;;;;;3.27;1.98;;;;;;;6.04;80.02;101166.43;2060977;86;28847;-68
2021/12/18 22:36:57;;;;;;;3.27;2.05;;;;;;;6.05;80.00;101158.87;2059731;86;31926;-68
2021/12/18 22:40:00;;;;;;;2.80;1.70;;;;;;;6.06;80.00;101160.17;2061212;86;33036;-65
2021/12/18 22:43:02;;;;;;;1.82;1.42;;;;;;;6.03;79.93;101152.27;2061538;86;28729;-65
2021/12/18 22:46:08;;;;;;;3.62;1.72;;;;;;;6.03;79.95;101149.61;2061439;86;27862;-64
2021/12/18 22:49:11;;;;;;;2.80;1.82;;;;;;;6.03;79.97;101156.26;2061034;86;28679;-64
2021/12/18 22:52:12;;;;;;;2.67;1.50;;;;;;;6.05;80.03;101153.56;2059813;86;31106;-66